createdAt,value
2018-04-26T00:02:20.075Z,5.00
2018-04-26T00:04:48.222Z,4.97
2018-04-26T00:07:16.319Z,4.78
2018-04-26T00:09:44.443Z,5.00
2018-04-26T00:12:13.060Z,5.37
2018-04-26T00:14:41.262Z,5.47
2018-04-26T00:17:10.384Z,5.05
2018-04-26T00:19:38.551Z,6.20
2018-04-26T00:22:06.673Z,5.60
2018-04-26T00:24:34.793Z,6.47
2018-04-26T00:27:02.935Z,6.30
2018-04-26T00:29:31.053Z,6.57
2018-04-26T00:31:59.167Z,5.80
2018-04-26T00:34:27.292Z,6.57
2018-04-26T00:36:55.405Z,6.80
2018-04-26T00:39:23.540Z,6.43
2018-04-26T00:41:51.943Z,8.50
2018-04-26T00:44:20.070Z,8.23
2018-04-26T00:46:48.267Z,7.67
2018-04-26T00:49:16.391Z,8.00
2018-04-26T00:51:56.152Z,9.40
2018-04-26T00:54:24.273Z,8.07
2018-04-26T00:56:52.445Z,8.45
2018-04-26T00:59:20.674Z,7.37
2018-04-26T01:01:48.794Z,7.37
2018-04-26T01:04:16.918Z,7.95
2018-04-26T01:06:45.038Z,6.80
2018-04-26T01:09:13.203Z,6.77
2018-04-26T01:11:41.307Z,6.73
2018-04-26T01:14:09.430Z,7.73
2018-04-26T01:16:37.553Z,7.10
2018-04-26T01:19:05.729Z,6.87
2018-04-26T01:21:34.089Z,7.10
2018-04-26T01:24:02.206Z,7.80
2018-04-26T01:26:30.338Z,8.33
2018-04-26T01:28:58.459Z,7.73
2018-04-26T01:31:26.594Z,8.03
2018-04-26T01:33:54.715Z,8.10
2018-04-26T01:36:34.526Z,7.55
2018-04-26T01:39:02.645Z,8.73
2018-04-26T01:41:30.779Z,8.70
2018-04-26T01:43:58.897Z,8.23
2018-04-26T01:46:27.023Z,8.43
2018-04-26T01:48:55.180Z,8.40
2018-04-26T01:51:23.287Z,8.53
2018-04-26T01:53:51.435Z,8.70
2018-04-26T01:56:19.565Z,9.20
2018-04-26T01:58:47.690Z,8.53
2018-04-26T02:01:15.814Z,9.03
2018-04-26T02:03:43.940Z,7.85
2018-04-26T02:06:12.071Z,7.83
2018-04-26T02:08:40.180Z,8.90
2018-04-26T02:11:08.305Z,8.90
2018-04-26T02:13:36.426Z,10.10
2018-04-26T02:16:04.544Z,9.50
2018-04-26T02:18:32.666Z,9.73
2018-04-26T02:21:00.790Z,8.38
2018-04-26T02:23:28.914Z,9.47
2018-04-26T02:25:57.034Z,9.53
2018-04-26T02:28:25.167Z,9.53
2018-04-26T02:30:53.291Z,9.20
2018-04-26T02:33:21.406Z,10.10
2018-04-26T02:35:49.548Z,9.47
2018-04-26T02:38:17.674Z,9.03
2018-04-26T02:40:45.794Z,8.83
2018-04-26T02:43:13.936Z,8.20
2018-04-26T02:45:42.063Z,9.20
2018-04-26T02:48:10.172Z,8.80
2018-04-26T02:50:38.302Z,10.20
2018-04-26T02:53:06.573Z,10.70
2018-04-26T02:55:34.699Z,11.70
2018-04-26T02:58:02.847Z,10.80
2018-04-26T03:00:31.032Z,10.73
2018-04-26T03:02:59.129Z,10.03
2018-04-26T03:05:27.265Z,9.83
2018-04-26T03:07:55.617Z,8.63
2018-04-26T03:10:23.735Z,9.03
2018-04-26T03:12:51.853Z,7.77
2018-04-26T03:15:19.977Z,8.00
2018-04-26T03:17:48.112Z,7.20
2018-04-26T03:20:16.231Z,6.30
2018-04-26T03:22:44.367Z,7.13
2018-04-26T03:25:12.511Z,6.43
2018-04-26T03:27:40.628Z,6.83
2018-04-26T03:30:08.750Z,6.30
2018-04-26T03:32:36.880Z,6.27
2018-04-26T03:35:05.002Z,6.30
2018-04-26T03:37:33.147Z,5.70
2018-04-26T03:40:01.947Z,6.27
2018-04-26T03:42:30.063Z,5.57
2018-04-26T03:44:58.466Z,5.90
2018-04-26T03:47:26.577Z,5.57
2018-04-26T03:49:54.703Z,5.33
2018-04-26T03:52:22.854Z,5.10
2018-04-26T03:54:50.965Z,5.47
2018-04-26T03:57:19.106Z,5.47
2018-04-26T03:59:59.010Z,5.17
2018-04-26T04:02:38.997Z,5.40
2018-04-26T04:05:23.771Z,6.17
2018-04-26T04:07:51.893Z,5.83
2018-04-26T04:10:20.031Z,5.77
2018-04-26T04:12:48.158Z,6.60
2018-04-26T04:15:16.261Z,6.65
2018-04-26T04:17:44.369Z,6.27
2018-04-26T04:20:12.502Z,5.70
2018-04-26T04:22:40.646Z,5.90
2018-04-26T04:25:08.772Z,5.70
2018-04-26T04:27:36.880Z,6.10
2018-04-26T04:30:05.015Z,5.90
2018-04-26T04:32:33.144Z,5.70
2018-04-26T04:35:01.278Z,5.53
2018-04-26T04:37:29.401Z,5.47
2018-04-26T04:39:57.517Z,5.53
2018-04-26T04:42:25.658Z,5.50
2018-04-26T04:44:53.795Z,6.00
2018-04-26T04:47:21.922Z,6.22
2018-04-26T04:49:50.065Z,5.10
2018-04-26T04:52:18.184Z,5.70
2018-04-26T04:54:46.311Z,5.97
2018-04-26T04:57:14.432Z,6.32
2018-04-26T04:59:42.547Z,5.63
2018-04-26T05:02:10.675Z,5.33
2018-04-26T05:04:38.773Z,5.97
2018-04-26T05:07:06.980Z,6.17
2018-04-26T05:09:35.115Z,6.20
2018-04-26T05:12:03.242Z,4.90
2018-04-26T05:14:31.379Z,6.13
2018-04-26T05:16:59.529Z,6.23
2018-04-26T05:19:27.659Z,5.60
2018-04-26T05:21:55.779Z,5.30
2018-04-26T05:24:23.898Z,5.73
2018-04-26T05:26:52.041Z,5.30
2018-04-26T05:29:20.172Z,4.85
2018-04-26T05:31:48.306Z,5.53
2018-04-26T05:34:16.438Z,5.60
2018-04-26T05:36:44.583Z,5.83
2018-04-26T05:39:12.727Z,5.93
2018-04-26T05:41:40.833Z,6.30
2018-04-26T05:44:08.964Z,6.50
2018-04-26T05:46:37.093Z,7.93
2018-04-26T05:49:05.248Z,6.40
2018-04-26T05:51:33.426Z,6.50
2018-04-26T05:54:01.548Z,6.27
2018-04-26T05:56:29.665Z,6.63
2018-04-26T05:58:57.781Z,6.53
2018-04-26T06:01:25.946Z,7.20
2018-04-26T06:03:54.279Z,6.83
2018-04-26T06:06:22.241Z,6.97
2018-04-26T06:08:50.364Z,6.13
2018-04-26T06:11:18.570Z,7.40
2018-04-26T06:13:46.592Z,6.70
2018-04-26T06:16:14.722Z,6.68
2018-04-26T06:18:42.844Z,6.70
2018-04-26T06:21:10.979Z,5.93
2018-04-26T06:23:39.119Z,6.03
2018-04-26T06:26:07.236Z,6.73
2018-04-26T06:28:35.356Z,6.27
2018-04-26T06:31:03.622Z,6.40
2018-04-26T06:33:31.597Z,6.60
2018-04-26T06:35:59.719Z,6.90
2018-04-26T06:38:27.847Z,7.90
2018-04-26T06:40:55.960Z,6.43
2018-04-26T06:43:24.083Z,7.57
2018-04-26T06:45:52.221Z,6.67
2018-04-26T06:48:20.355Z,6.53
2018-04-26T06:50:48.484Z,8.27
2018-04-26T06:53:16.597Z,6.30
2018-04-26T06:55:44.730Z,7.73
2018-04-26T06:58:12.851Z,6.80
2018-04-26T07:00:40.978Z,6.40
2018-04-26T07:03:09.101Z,8.00
2018-04-26T07:05:37.209Z,8.23
2018-04-26T07:08:05.327Z,7.20
2018-04-26T07:10:33.534Z,8.13
2018-04-26T07:13:01.640Z,6.73
2018-04-26T07:15:29.760Z,6.80
2018-04-26T07:17:57.950Z,8.27
2018-04-26T07:20:26.054Z,6.17
2018-04-26T07:22:54.184Z,6.97
2018-04-26T07:25:22.312Z,6.57
2018-04-26T07:27:50.458Z,7.20
2018-04-26T07:30:18.610Z,6.70
2018-04-26T07:32:46.782Z,7.73
2018-04-26T07:35:14.908Z,6.07
2018-04-26T07:37:43.049Z,6.47
2018-04-26T07:40:11.176Z,7.93
2018-04-26T07:42:39.297Z,6.90
2018-04-26T07:45:07.436Z,6.67
2018-04-26T07:47:35.615Z,6.80
2018-04-26T07:50:03.764Z,7.13
2018-04-26T07:52:31.933Z,7.33
2018-04-26T07:55:00.154Z,8.07
2018-04-26T07:57:28.307Z,7.93
2018-04-26T07:59:56.410Z,7.00
2018-04-26T08:02:24.522Z,8.30
2018-04-26T08:04:52.647Z,7.73
2018-04-26T08:07:20.779Z,8.45
2018-04-26T08:09:48.897Z,8.27
2018-04-26T08:12:17.024Z,8.00
2018-04-26T08:14:45.162Z,8.20
2018-04-26T08:17:13.289Z,8.33
2018-04-26T08:19:41.503Z,8.17
2018-04-26T08:22:09.563Z,6.40
2018-04-26T08:24:38.573Z,5.73
2018-04-26T08:27:06.860Z,6.83
2018-04-26T08:29:34.980Z,6.00
2018-04-26T08:32:03.874Z,6.03
2018-04-26T08:34:32.008Z,5.80
2018-04-26T08:37:00.121Z,6.67
2018-04-26T08:39:28.254Z,6.62
2018-04-26T08:41:56.403Z,6.93
2018-04-26T08:44:24.535Z,7.03
2018-04-26T08:46:52.743Z,6.60
2018-04-26T08:49:20.871Z,6.85
2018-04-26T08:51:49.049Z,6.77
2018-04-26T08:54:17.275Z,6.20
2018-04-26T08:56:45.406Z,7.47
2018-04-26T08:59:13.543Z,7.23
2018-04-26T09:01:41.666Z,6.63
2018-04-26T09:04:09.820Z,8.07
2018-04-26T09:06:37.979Z,7.67
2018-04-26T09:09:06.116Z,7.60
2018-04-26T09:11:34.273Z,7.70
2018-04-26T09:14:02.396Z,7.93
2018-04-26T09:16:30.530Z,9.20
2018-04-26T09:18:58.691Z,8.87
2018-04-26T09:21:26.848Z,8.30
2018-04-26T09:23:54.962Z,8.40
2018-04-26T09:26:23.085Z,9.67
2018-04-26T09:28:51.234Z,9.10
2018-04-26T09:31:19.394Z,7.35
2018-04-26T09:33:47.537Z,6.80
2018-04-26T09:36:15.657Z,7.13
2018-04-26T09:38:43.858Z,7.77
2018-04-26T09:41:11.917Z,7.32
2018-04-26T09:43:40.064Z,6.53
2018-04-26T09:46:08.298Z,6.30
2018-04-26T09:48:36.454Z,5.87
2018-04-26T09:51:04.554Z,6.40
2018-04-26T09:53:32.707Z,5.90
2018-04-26T09:56:01.057Z,6.00
2018-04-26T09:58:29.193Z,6.47
2018-04-26T10:00:57.325Z,5.37
2018-04-26T10:03:27.514Z,6.50
2018-04-26T10:05:57.506Z,5.37
2018-04-26T10:08:25.626Z,5.60
2018-04-26T10:10:53.735Z,5.93
2018-04-26T10:13:21.881Z,6.43
2018-04-26T10:15:49.994Z,6.17
2018-04-26T10:18:18.135Z,6.93
2018-04-26T10:20:46.264Z,6.60
2018-04-26T10:23:14.437Z,6.60
2018-04-26T10:25:42.576Z,5.83
2018-04-26T10:28:10.688Z,6.90
2018-04-26T10:30:38.810Z,6.67
2018-04-26T10:33:07.076Z,7.57
2018-04-26T10:35:35.192Z,6.50
2018-04-26T10:38:03.314Z,7.03
2018-04-26T10:40:31.467Z,8.20
2018-04-26T10:42:59.591Z,5.90
2018-04-26T10:45:27.730Z,6.15
2018-04-26T10:47:55.877Z,6.90
2018-04-26T10:50:24.078Z,6.50
2018-04-26T10:52:52.211Z,6.20
2018-04-26T10:55:20.370Z,6.77
2018-04-26T10:57:48.495Z,6.60
2018-04-26T11:00:16.615Z,6.80
2018-04-26T11:02:44.741Z,7.90
2018-04-26T11:05:12.873Z,6.10
2018-04-26T11:07:40.998Z,7.30
2018-04-26T11:10:09.154Z,7.27
2018-04-26T11:12:37.272Z,7.50
2018-04-26T11:15:05.399Z,6.63
2018-04-26T11:17:33.535Z,7.40
2018-04-26T11:20:01.655Z,7.23
2018-04-26T11:22:29.817Z,7.00
2018-04-26T11:24:57.958Z,5.90
2018-04-26T11:27:26.082Z,5.90
2018-04-26T11:29:54.215Z,5.83
2018-04-26T11:32:22.353Z,5.33
2018-04-26T11:34:50.474Z,6.28
2018-04-26T11:37:18.603Z,6.45
2018-04-26T11:39:46.731Z,6.07
2018-04-26T11:42:14.848Z,6.23
2018-04-26T11:44:43.030Z,6.23
2018-04-26T11:47:11.201Z,6.03
2018-04-26T11:49:39.331Z,6.13
2018-04-26T11:52:07.447Z,6.00
2018-04-26T11:54:35.612Z,6.77
2018-04-26T11:57:03.733Z,5.50
2018-04-26T11:59:31.856Z,5.40
2018-04-26T12:01:59.989Z,5.00
2018-04-26T12:04:28.116Z,5.97
2018-04-26T12:06:56.237Z,6.00
2018-04-26T12:09:24.357Z,6.32
2018-04-26T12:11:52.485Z,6.17
2018-04-26T12:14:20.607Z,5.67
2018-04-26T12:16:48.723Z,5.77
2018-04-26T12:19:17.417Z,6.07
2018-04-26T12:21:45.530Z,6.10
2018-04-26T12:24:13.656Z,6.33
2018-04-26T12:26:41.966Z,7.40
2018-04-26T12:29:10.444Z,6.70
2018-04-26T12:31:38.557Z,6.77
2018-04-26T12:34:06.705Z,7.43
2018-04-26T12:36:34.825Z,7.63
2018-04-26T12:39:02.942Z,8.40
2018-04-26T12:41:31.068Z,7.37
2018-04-26T12:43:59.208Z,9.90
2018-04-26T12:46:27.362Z,8.80
2018-04-26T12:48:55.474Z,8.93
2018-04-26T12:51:23.617Z,10.03
2018-04-26T12:53:51.733Z,9.43
2018-04-26T12:56:19.861Z,8.87
2018-04-26T12:58:47.999Z,12.83
2018-04-26T13:01:16.147Z,9.50
2018-04-26T13:03:44.307Z,10.27
2018-04-26T13:06:12.439Z,14.50
2018-04-26T13:08:40.601Z,9.13
2018-04-26T13:11:09.709Z,9.07
2018-04-26T13:13:37.827Z,10.00
2018-04-26T13:16:05.984Z,10.33
2018-04-26T13:18:34.107Z,9.70
2018-04-26T13:21:02.241Z,9.30
2018-04-26T13:23:30.832Z,9.25
2018-04-26T13:25:58.990Z,10.57
2018-04-26T13:28:27.225Z,10.13
2018-04-26T13:30:55.355Z,9.13
2018-04-26T13:33:23.503Z,9.52
2018-04-26T13:35:51.638Z,10.27
2018-04-26T13:38:19.792Z,11.10
2018-04-26T13:40:47.911Z,9.83
2018-04-26T13:43:16.097Z,9.00
2018-04-26T13:45:44.225Z,9.20
2018-04-26T13:48:12.441Z,10.63
2018-04-26T13:50:40.569Z,9.60
2018-04-26T13:53:08.753Z,11.00
2018-04-26T13:55:36.889Z,10.43
2018-04-26T13:58:05.294Z,10.30
2018-04-26T14:00:33.450Z,10.00
2018-04-26T14:03:01.627Z,9.90
2018-04-26T14:05:29.786Z,10.60
2018-04-26T14:07:57.942Z,11.50
2018-04-26T14:10:26.077Z,10.30
2018-04-26T14:12:54.222Z,10.20
2018-04-26T14:15:23.212Z,10.73
2018-04-26T14:17:51.368Z,10.67
2018-04-26T14:20:19.493Z,11.30
2018-04-26T14:22:47.629Z,10.67
2018-04-26T14:25:15.786Z,12.02
2018-04-26T14:27:43.922Z,10.53
2018-04-26T14:30:12.058Z,10.67
2018-04-26T14:32:40.197Z,11.17
2018-04-26T14:35:08.394Z,10.10
2018-04-26T14:37:36.582Z,10.77
2018-04-26T14:40:04.755Z,10.03
2018-04-26T14:42:32.895Z,9.97
2018-04-26T14:45:01.036Z,10.20
2018-04-26T14:47:29.191Z,10.25
2018-04-26T14:49:57.317Z,9.90
2018-04-26T14:52:25.493Z,9.70
2018-04-26T14:54:53.612Z,9.77
2018-04-26T14:57:21.766Z,10.52
2018-04-26T14:59:49.903Z,9.60
2018-04-26T15:02:18.051Z,9.70
2018-04-26T15:04:46.170Z,9.77
2018-04-26T15:07:14.317Z,11.43
2018-04-26T15:09:42.495Z,10.80
2018-04-26T15:12:10.644Z,10.07
2018-04-26T15:14:38.781Z,9.97
2018-04-26T15:17:06.935Z,8.00
2018-04-26T15:19:35.047Z,7.63
2018-04-26T15:22:03.167Z,6.67
2018-04-26T15:24:31.289Z,6.53
2018-04-26T15:26:59.431Z,6.43
2018-04-26T15:29:27.565Z,6.10
2018-04-26T15:31:55.783Z,6.20
2018-04-26T15:34:24.191Z,6.50
2018-04-26T15:36:52.337Z,6.00
2018-04-26T15:39:20.460Z,6.70
2018-04-26T15:41:48.585Z,6.97
2018-04-26T15:44:16.726Z,6.77
2018-04-26T15:46:44.832Z,6.47
2018-04-26T15:49:12.965Z,7.40
2018-04-26T15:51:41.086Z,7.97
2018-04-26T15:54:21.047Z,8.33
2018-04-26T15:57:00.827Z,9.70
2018-04-26T15:59:40.715Z,9.15
2018-04-26T16:05:54.867Z,12.40
2018-04-26T16:11:38.732Z,13.10
2018-04-26T16:14:24.147Z,13.70
2018-04-26T16:20:33.458Z,14.30
2018-04-26T16:26:29.830Z,13.10
2018-04-26T16:29:15.612Z,13.10
2018-04-26T16:32:01.250Z,13.07
2018-04-26T16:34:50.078Z,12.40
2018-04-26T16:40:33.652Z,13.17
2018-04-26T16:43:01.805Z,11.47
2018-04-26T16:45:29.912Z,13.90
2018-04-26T16:47:58.046Z,12.90
2018-04-26T16:50:26.180Z,15.43
2018-04-26T16:52:54.312Z,12.03
2018-04-26T16:55:22.449Z,11.10
2018-04-26T16:57:50.588Z,12.53
2018-04-26T17:00:18.727Z,11.43
2018-04-26T17:02:46.854Z,9.80
2018-04-26T17:05:14.979Z,9.77
2018-04-26T17:07:43.110Z,8.77
2018-04-26T17:10:11.232Z,7.53
2018-04-26T17:12:39.366Z,8.17
2018-04-26T17:15:07.534Z,8.73
2018-04-26T17:17:35.679Z,8.33
2018-04-26T17:20:03.815Z,8.63
2018-04-26T17:22:31.990Z,7.03
2018-04-26T17:25:00.077Z,8.13
2018-04-26T17:27:28.221Z,8.00
2018-04-26T17:29:56.345Z,7.10
2018-04-26T17:32:24.479Z,8.40
2018-04-26T17:34:52.665Z,8.00
2018-04-26T17:37:20.759Z,7.12
2018-04-26T17:39:48.885Z,7.47
2018-04-26T17:42:17.082Z,7.77
2018-04-26T17:44:45.136Z,7.83
2018-04-26T17:47:13.262Z,7.23
2018-04-26T17:49:41.394Z,6.93
2018-04-26T17:52:09.522Z,8.03
2018-04-26T17:54:37.652Z,8.37
2018-04-26T17:57:05.824Z,9.53
2018-04-26T17:59:33.952Z,9.43
2018-04-26T18:02:02.295Z,9.47
2018-04-26T18:04:30.429Z,8.60
2018-04-26T18:06:58.569Z,9.00
2018-04-26T18:09:26.722Z,10.30
2018-04-26T18:11:54.831Z,9.60
2018-04-26T18:14:22.956Z,9.50
2018-04-26T18:16:51.096Z,10.13
2018-04-26T18:19:19.239Z,9.60
2018-04-26T18:21:47.388Z,9.20
2018-04-26T18:24:15.516Z,8.90
2018-04-26T18:26:43.652Z,8.63
2018-04-26T18:29:11.796Z,9.23
2018-04-26T18:31:39.915Z,10.20
2018-04-26T18:34:08.049Z,9.23
2018-04-26T18:36:36.185Z,10.27
2018-04-26T18:39:04.317Z,8.70
2018-04-26T18:41:32.476Z,9.02
2018-04-26T18:44:00.594Z,9.40
2018-04-26T18:46:28.722Z,8.80
2018-04-26T18:48:56.855Z,8.93
2018-04-26T18:51:25.301Z,9.05
2018-04-26T18:53:53.362Z,9.57
2018-04-26T18:56:21.487Z,9.70
2018-04-26T18:58:49.643Z,9.77
2018-04-26T19:01:17.788Z,9.87
2018-04-26T19:03:45.911Z,9.50
2018-04-26T19:06:14.095Z,10.27
2018-04-26T19:08:42.237Z,9.70
2018-04-26T19:11:10.695Z,9.50
2018-04-26T19:13:38.827Z,10.40
2018-04-26T19:16:06.979Z,11.40
2018-04-26T19:18:35.127Z,11.50
2018-04-26T19:21:03.295Z,9.90
2018-04-26T19:23:31.415Z,10.07
2018-04-26T19:25:59.569Z,10.33
2018-04-26T19:28:27.707Z,9.83
2018-04-26T19:30:55.853Z,9.00
2018-04-26T19:33:24.006Z,10.07
2018-04-26T19:35:52.221Z,9.33
2018-04-26T19:38:20.365Z,9.80
2018-04-26T19:40:48.492Z,9.70
2018-04-26T19:43:16.646Z,10.20
2018-04-26T19:45:44.775Z,9.90
2018-04-26T19:48:12.898Z,9.70
2018-04-26T19:50:41.066Z,10.83
2018-04-26T19:53:10.328Z,9.93
2018-04-26T19:55:38.474Z,10.67
2018-04-26T19:58:06.609Z,10.73
2018-04-26T20:00:34.747Z,12.10
2018-04-26T20:03:02.886Z,11.80
2018-04-26T20:05:31.007Z,11.87
2018-04-26T20:07:59.146Z,11.15
2018-04-26T20:10:27.317Z,11.70
2018-04-26T20:12:55.453Z,10.73
2018-04-26T20:15:23.592Z,11.27
2018-04-26T20:17:51.732Z,10.37
2018-04-26T20:20:19.842Z,10.33
2018-04-26T20:22:47.975Z,9.37
2018-04-26T20:25:16.117Z,10.07
2018-04-26T20:27:44.256Z,9.80
2018-04-26T20:30:12.378Z,10.40
2018-04-26T20:32:40.542Z,10.17
2018-04-26T20:35:08.657Z,10.57
2018-04-26T20:37:37.539Z,9.43
2018-04-26T20:40:05.681Z,10.13
2018-04-26T20:42:33.807Z,10.43
2018-04-26T20:45:01.952Z,10.67
2018-04-26T20:47:30.085Z,12.07
2018-04-26T20:49:58.212Z,11.40
2018-04-26T20:52:26.333Z,11.25
2018-04-26T20:54:54.467Z,11.53
2018-04-26T20:57:22.588Z,12.47
2018-04-26T20:59:50.710Z,13.53
2018-04-26T21:02:18.925Z,12.90
2018-04-26T21:04:46.990Z,14.70
2018-04-26T21:07:15.114Z,12.97
2018-04-26T21:09:43.237Z,13.77
2018-04-26T21:12:11.373Z,12.87
2018-04-26T21:14:39.509Z,13.87
2018-04-26T21:17:07.671Z,12.60
2018-04-26T21:19:35.815Z,12.80
2018-04-26T21:22:03.964Z,11.40
2018-04-26T21:24:32.090Z,13.40
2018-04-26T21:27:00.254Z,12.30
2018-04-26T21:29:28.366Z,11.80
2018-04-26T21:31:56.509Z,12.53
2018-04-26T21:34:24.639Z,11.97
2018-04-26T21:36:52.758Z,10.23
2018-04-26T21:39:20.882Z,11.90
2018-04-26T21:41:49.000Z,11.20
2018-04-26T21:44:17.156Z,12.93
2018-04-26T21:46:45.277Z,11.73
2018-04-26T21:49:13.407Z,11.70
2018-04-26T21:51:47.122Z,11.27
2018-04-26T21:54:20.828Z,11.93
2018-04-26T21:56:54.484Z,10.83
2018-04-26T21:59:28.140Z,10.90
2018-04-26T22:02:01.889Z,11.20
2018-04-26T22:07:29.622Z,10.47
2018-04-26T22:09:57.759Z,11.00
2018-04-26T22:12:25.898Z,10.00
2018-04-26T22:14:54.033Z,11.43
2018-04-26T22:17:22.168Z,11.15
2018-04-26T22:19:50.287Z,11.37
2018-04-26T22:22:18.410Z,11.40
2018-04-26T22:24:46.559Z,12.00
2018-04-26T22:27:14.685Z,11.70
2018-04-26T22:29:42.816Z,10.98
2018-04-26T22:32:10.925Z,10.80
2018-04-26T22:34:39.060Z,10.97
2018-04-26T22:37:07.281Z,10.20
2018-04-26T22:39:35.412Z,10.10
2018-04-26T22:42:03.533Z,10.33
2018-04-26T22:44:31.672Z,10.13
2018-04-26T22:46:59.809Z,10.93
2018-04-26T22:49:28.104Z,10.97
2018-04-26T22:51:56.222Z,9.60
2018-04-26T22:54:24.344Z,9.80
2018-04-26T22:56:52.479Z,9.63
2018-04-26T22:59:20.605Z,9.53
2018-04-26T23:01:48.731Z,10.37
2018-04-26T23:04:16.849Z,8.97
2018-04-26T23:06:44.981Z,8.67
2018-04-26T23:09:13.101Z,9.60
2018-04-26T23:11:41.245Z,7.97
2018-04-26T23:14:09.355Z,8.83
2018-04-26T23:16:37.468Z,8.40
2018-04-26T23:19:05.597Z,9.03
2018-04-26T23:21:33.721Z,9.23
2018-04-26T23:24:01.863Z,10.37
2018-04-26T23:26:29.985Z,9.17
2018-04-26T23:29:03.778Z,9.40
2018-04-26T23:31:31.908Z,8.67
2018-04-26T23:34:00.022Z,9.93
2018-04-26T23:36:28.131Z,7.43
2018-04-26T23:38:56.248Z,6.23
2018-04-26T23:41:24.373Z,6.87
2018-04-26T23:43:52.513Z,6.50
2018-04-26T23:46:20.630Z,7.50
2018-04-26T23:48:48.732Z,6.40
2018-04-26T23:51:16.870Z,6.30
2018-04-26T23:53:44.996Z,6.23
2018-04-26T23:56:13.117Z,6.10
2018-04-26T23:58:41.235Z,7.27
